CheckWX is a tool to help pilots better visualize weather data.  It is not intended as a substitute for an official pre-flight weather briefing.

19:16:56 UTC

CYGP METAR
Gaspé (Michel-Pouliot) Airport
Gaspé, Canada
Current

25 mins ago

CYGP 261852Z 18015KT 140V220 15SM -RA BKN020 OVC050 12/07 A2983 RMK CU6SC2 SLP104
Observed
May-26 @ 18:52 UTC
Wind
  • 180° at 15 KTS
Visibility
15 SM
Flight Rules
MVFR
Conditions
Light Rain
Cloud Levels
  • Broken at 2,000' AGL
  • Overcast at 5,000' AGL
Temperature
12°C / 54°F
Dewpoint
C / 45°F
Humidity
72%
Altimeter
29.83" Hg
Pressure
1010.12 hPa
Previous

1 hour ago

CYGP 261800Z 19011G28KT 15SM FEW030 OVC080 13/07 A2981 RMK CU1AC7 SLP099
Observed
May-26 @ 18:00 UTC
Wind
  • 190° at 11 KTS
  • Gusting to 28 KTS
Visibility
15 SM
Flight Rules
VFR
Cloud Levels
  • Few at 3,000' AGL
  • Overcast at 8,000' AGL
Temperature
13°C / 55°F
Dewpoint
C / 45°F
Humidity
67%
Altimeter
29.81" Hg
Pressure
1009.52 hPa
Previous

2 hours ago

CYGP 261728Z 19011G26KT 160V220 15SM FEW040 BKN080 14/05 A2981 RMK CU1AC7 CU TR SLP098 DENSITY ALT 200FT
Observed
May-26 @ 17:28 UTC
Wind
  • 190° at 11 KTS
  • Gusting to 26 KTS
Visibility
15 SM
Flight Rules
VFR
Cloud Levels
  • Few at 4,000' AGL
  • Broken at 8,000' AGL
Temperature
14°C / 57°F
Dewpoint
C / 41°F
Humidity
55%
Altimeter
29.81" Hg
Pressure
1009.52 hPa